Terminal Aerodrome Forecast
Issued by NWS Cleveland, OH

Home | Current Version | Previous Version | Text Only | Print | Product List | Glossary On
Versions: 1 2 3 4 5 6 7 8 9 10 11 12 13 14
128
FTUS41 KCLE 260541
TAFCAK
TAF
KCAK 260541Z 2606/2706 10006KT P6SM OVC250
     FM260900 12010KT P6SM OVC120
     FM261500 16012KT P6SM OVC045
     FM262000 18012KT 5SM -SHRA BR VCTS OVC025CB
      TEMPO 2620/2624 4SM -SHRA BR OVC035
     FM270200 16004KT 6SM BR SCT012 BKN045=

USA.gov is the U.S. government's official web portal to all federal, state and local government web resources and services.